X  Close Metar Aviation Weather Data     KCRE Grand Strand Airport
Temperature
73°F Temperature
54°F Dewpoint
50% Humidity



Wind
9 MPH
14 KM/H
4 M/S
8 KTS



320°
NW
Current Conditions

Clear Clear
Pressure 1013.92 (hPa) - 29.94 (inHg)
Visibility 9.9 (mile) - 16 (km)
Airport
Airport-code KCRE

Location: Grand Strand Airport
Distance: 6 (mi)

Metar:
KCRE 301753Z 32008G19KT 290V360 10SM CLR 23/12 A2994 RMK AO1 SLP139 T02280122 10228 20161 51010

Time: 30-10-2020 1:53 pm EDT